sensor_id;sensor_type;location;lat;lon;timestamp;P1;durP1;ratioP1;P2;durP2;ratioP2
23228;SDS011;11783;50.350;6.576;2023-05-10T00:00:54;4.95;;;1.20;;
23228;SDS011;11783;50.350;6.576;2023-05-10T00:03:20;2.13;;;0.90;;
23228;SDS011;11783;50.350;6.576;2023-05-10T00:05:45;3.47;;;1.00;;
23228;SDS011;11783;50.350;6.576;2023-05-10T00:08:10;4.40;;;1.27;;
23228;SDS011;11783;50.350;6.576;2023-05-10T00:10:36;2.30;;;1.15;;
23228;SDS011;11783;50.350;6.576;2023-05-10T00:13:02;2.38;;;1.33;;
23228;SDS011;11783;50.350;6.576;2023-05-10T00:15:27;4.15;;;1.30;;
23228;SDS011;11783;50.350;6.576;2023-05-10T00:17:53;2.92;;;1.30;;
23228;SDS011;11783;50.350;6.576;2023-05-10T00:20:18;2.53;;;1.30;;
23228;SDS011;11783;50.350;6.576;2023-05-10T00:22:43;4.43;;;1.60;;
23228;SDS011;11783;50.350;6.576;2023-05-10T00:25:09;3.15;;;1.30;;
23228;SDS011;11783;50.350;6.576;2023-05-10T00:27:35;2.63;;;1.40;;
23228;SDS011;11783;50.350;6.576;2023-05-10T00:30:01;3.22;;;1.48;;
23228;SDS011;11783;50.350;6.576;2023-05-10T00:32:26;2.58;;;1.40;;
23228;SDS011;11783;50.350;6.576;2023-05-10T00:34:51;4.38;;;1.33;;
23228;SDS011;11783;50.350;6.576;2023-05-10T00:37:16;3.60;;;1.20;;
23228;SDS011;11783;50.350;6.576;2023-05-10T00:39:42;3.58;;;1.60;;
23228;SDS011;11783;50.350;6.576;2023-05-10T00:42:07;4.88;;;1.50;;
23228;SDS011;11783;50.350;6.576;2023-05-10T00:44:32;3.28;;;1.30;;
23228;SDS011;11783;50.350;6.576;2023-05-10T00:46:58;3.13;;;1.33;;
23228;SDS011;11783;50.350;6.576;2023-05-10T00:49:24;3.38;;;1.50;;
23228;SDS011;11783;50.350;6.576;2023-05-10T00:51:50;3.90;;;1.30;;
23228;SDS011;11783;50.350;6.576;2023-05-10T00:54:15;3.58;;;1.77;;
23228;SDS011;11783;50.350;6.576;2023-05-10T00:56:41;4.70;;;1.63;;
23228;SDS011;11783;50.350;6.576;2023-05-10T00:59:07;3.28;;;1.38;;
23228;SDS011;11783;50.350;6.576;2023-05-10T01:01:33;3.00;;;1.40;;
23228;SDS011;11783;50.350;6.576;2023-05-10T01:04:00;3.63;;;1.45;;
23228;SDS011;11783;50.350;6.576;2023-05-10T01:06:26;4.38;;;2.20;;
23228;SDS011;11783;50.350;6.576;2023-05-10T01:08:52;3.10;;;1.88;;
23228;SDS011;11783;50.350;6.576;2023-05-10T01:11:18;6.50;;;2.00;;
23228;SDS011;11783;50.350;6.576;2023-05-10T01:13:43;3.67;;;2.08;;
23228;SDS011;11783;50.350;6.576;2023-05-10T01:16:14;3.50;;;1.90;;
23228;SDS011;11783;50.350;6.576;2023-05-10T01:18:40;6.93;;;2.20;;
23228;SDS011;11783;50.350;6.576;2023-05-10T01:26:34;4.63;;;1.80;;
23228;SDS011;11783;50.350;6.576;2023-05-10T01:29:33;4.55;;;1.92;;
23228;SDS011;11783;50.350;6.576;2023-05-10T01:34:54;4.13;;;1.70;;
23228;SDS011;11783;50.350;6.576;2023-05-10T01:37:33;3.50;;;1.63;;
23228;SDS011;11783;50.350;6.576;2023-05-10T01:42:55;3.33;;;1.63;;
23228;SDS011;11783;50.350;6.576;2023-05-10T01:45:39;3.45;;;1.67;;
23228;SDS011;11783;50.350;6.576;2023-05-10T01:48:11;2.92;;;1.70;;
23228;SDS011;11783;50.350;6.576;2023-05-10T01:50:41;2.65;;;1.40;;
23228;SDS011;11783;50.350;6.576;2023-05-10T01:53:09;4.20;;;1.40;;
23228;SDS011;11783;50.350;6.576;2023-05-10T01:55:43;6.93;;;1.98;;
23228;SDS011;11783;50.350;6.576;2023-05-10T01:58:15;4.10;;;1.58;;
23228;SDS011;11783;50.350;6.576;2023-05-10T02:00:45;3.10;;;1.70;;
23228;SDS011;11783;50.350;6.576;2023-05-10T02:03:12;3.83;;;1.88;;
23228;SDS011;11783;50.350;6.576;2023-05-10T02:05:39;3.80;;;1.65;;
23228;SDS011;11783;50.350;6.576;2023-05-10T02:08:09;4.65;;;1.70;;
23228;SDS011;11783;50.350;6.576;2023-05-10T02:10:35;4.65;;;1.90;;
23228;SDS011;11783;50.350;6.576;2023-05-10T02:13:02;4.38;;;1.70;;
23228;SDS011;11783;50.350;6.576;2023-05-10T02:15:29;4.07;;;1.85;;
23228;SDS011;11783;50.350;6.576;2023-05-10T02:17:55;5.00;;;1.80;;
23228;SDS011;11783;50.350;6.576;2023-05-10T02:20:22;4.30;;;2.05;;
23228;SDS011;11783;50.350;6.576;2023-05-10T02:22:49;4.75;;;2.10;;
23228;SDS011;11783;50.350;6.576;2023-05-10T02:25:16;4.43;;;1.77;;
23228;SDS011;11783;50.350;6.576;2023-05-10T02:27:44;4.38;;;2.10;;
23228;SDS011;11783;50.350;6.576;2023-05-10T02:30:11;4.32;;;1.73;;
23228;SDS011;11783;50.350;6.576;2023-05-10T02:32:37;4.40;;;1.90;;
23228;SDS011;11783;50.350;6.576;2023-05-10T02:35:04;3.10;;;1.42;;
23228;SDS011;11783;50.350;6.576;2023-05-10T02:37:30;3.47;;;1.60;;
23228;SDS011;11783;50.350;6.576;2023-05-10T02:39:57;3.10;;;1.42;;
23228;SDS011;11783;50.350;6.576;2023-05-10T02:42:24;4.53;;;1.27;;
23228;SDS011;11783;50.350;6.576;2023-05-10T02:44:52;3.38;;;1.75;;
23228;SDS011;11783;50.350;6.576;2023-05-10T02:47:21;3.20;;;1.58;;
23228;SDS011;11783;50.350;6.576;2023-05-10T02:49:46;5.22;;;2.00;;
23228;SDS011;11783;50.350;6.576;2023-05-10T02:52:12;5.28;;;1.60;;
23228;SDS011;11783;50.350;6.576;2023-05-10T02:54:44;5.10;;;2.15;;
23228;SDS011;11783;50.350;6.576;2023-05-10T02:57:14;5.47;;;2.40;;
23228;SDS011;11783;50.350;6.576;2023-05-10T02:59:44;4.82;;;2.33;;
23228;SDS011;11783;50.350;6.576;2023-05-10T03:02:10;3.92;;;2.03;;
23228;SDS011;11783;50.350;6.576;2023-05-10T03:04:37;5.78;;;2.60;;
23228;SDS011;11783;50.350;6.576;2023-05-10T03:07:03;6.82;;;2.42;;
23228;SDS011;11783;50.350;6.576;2023-05-10T03:09:28;7.28;;;3.00;;
23228;SDS011;11783;50.350;6.576;2023-05-10T03:20:24;7.32;;;3.30;;
23228;SDS011;11783;50.350;6.576;2023-05-10T03:23:13;6.45;;;3.33;;
23228;SDS011;11783;50.350;6.576;2023-05-10T03:25:52;4.45;;;2.70;;
23228;SDS011;11783;50.350;6.576;2023-05-10T03:28:18;5.60;;;2.88;;
23228;SDS011;11783;50.350;6.576;2023-05-10T03:30:45;5.75;;;2.50;;
23228;SDS011;11783;50.350;6.576;2023-05-10T03:33:11;5.55;;;2.80;;
23228;SDS011;11783;50.350;6.576;2023-05-10T03:35:37;5.00;;;2.42;;
23228;SDS011;11783;50.350;6.576;2023-05-10T03:38:03;4.95;;;2.30;;
23228;SDS011;11783;50.350;6.576;2023-05-10T03:40:28;6.10;;;3.25;;
23228;SDS011;11783;50.350;6.576;2023-05-10T03:42:56;6.55;;;2.95;;
23228;SDS011;11783;50.350;6.576;2023-05-10T03:45:21;6.78;;;3.72;;
23228;SDS011;11783;50.350;6.576;2023-05-10T03:47:47;6.15;;;3.08;;
23228;SDS011;11783;50.350;6.576;2023-05-10T03:50:12;5.03;;;2.88;;
23228;SDS011;11783;50.350;6.576;2023-05-10T03:52:37;6.13;;;3.08;;
23228;SDS011;11783;50.350;6.576;2023-05-10T03:55:04;6.18;;;3.35;;
23228;SDS011;11783;50.350;6.576;2023-05-10T03:57:31;8.38;;;4.15;;
23228;SDS011;11783;50.350;6.576;2023-05-10T03:59:56;6.00;;;3.78;;
23228;SDS011;11783;50.350;6.576;2023-05-10T04:02:22;9.80;;;4.00;;
23228;SDS011;11783;50.350;6.576;2023-05-10T04:04:47;10.32;;;3.92;;
23228;SDS011;11783;50.350;6.576;2023-05-10T04:07:13;8.38;;;4.00;;
23228;SDS011;11783;50.350;6.576;2023-05-10T04:09:38;8.23;;;4.50;;
23228;SDS011;11783;50.350;6.576;2023-05-10T04:12:03;8.98;;;4.03;;
23228;SDS011;11783;50.350;6.576;2023-05-10T04:14:29;7.30;;;3.55;;
23228;SDS011;11783;50.350;6.576;2023-05-10T04:16:54;7.88;;;3.92;;
23228;SDS011;11783;50.350;6.576;2023-05-10T04:19:20;8.55;;;4.78;;
23228;SDS011;11783;50.350;6.576;2023-05-10T04:21:45;7.30;;;4.18;;
23228;SDS011;11783;50.350;6.576;2023-05-10T04:24:10;6.95;;;4.00;;
23228;SDS011;11783;50.350;6.576;2023-05-10T04:26:36;9.27;;;4.03;;
23228;SDS011;11783;50.350;6.576;2023-05-10T04:29:02;8.32;;;4.13;;
23228;SDS011;11783;50.350;6.576;2023-05-10T04:31:27;9.05;;;4.10;;
23228;SDS011;11783;50.350;6.576;2023-05-10T04:33:52;8.23;;;4.38;;
23228;SDS011;11783;50.350;6.576;2023-05-10T04:36:18;12.68;;;4.78;;
23228;SDS011;11783;50.350;6.576;2023-05-10T04:38:43;8.60;;;4.30;;
23228;SDS011;11783;50.350;6.576;2023-05-10T04:41:09;9.27;;;4.72;;
23228;SDS011;11783;50.350;6.576;2023-05-10T04:43:35;10.32;;;4.53;;
23228;SDS011;11783;50.350;6.576;2023-05-10T04:46:02;7.72;;;4.20;;
23228;SDS011;11783;50.350;6.576;2023-05-10T04:48:27;9.38;;;4.75;;
23228;SDS011;11783;50.350;6.576;2023-05-10T04:50:52;8.50;;;4.60;;
23228;SDS011;11783;50.350;6.576;2023-05-10T04:53:18;11.13;;;5.20;;
23228;SDS011;11783;50.350;6.576;2023-05-10T04:55:43;15.10;;;5.28;;
23228;SDS011;11783;50.350;6.576;2023-05-10T04:58:09;10.50;;;4.97;;
23228;SDS011;11783;50.350;6.576;2023-05-10T05:00:34;12.07;;;5.25;;
23228;SDS011;11783;50.350;6.576;2023-05-10T05:03:00;11.00;;;5.47;;
23228;SDS011;11783;50.350;6.576;2023-05-10T05:05:25;9.02;;;5.28;;
23228;SDS011;11783;50.350;6.576;2023-05-10T05:07:51;12.02;;;5.47;;
23228;SDS011;11783;50.350;6.576;2023-05-10T05:10:16;13.27;;;5.72;;
23228;SDS011;11783;50.350;6.576;2023-05-10T05:12:41;11.20;;;5.80;;
23228;SDS011;11783;50.350;6.576;2023-05-10T05:15:07;9.40;;;5.22;;
23228;SDS011;11783;50.350;6.576;2023-05-10T05:17:34;14.15;;;6.45;;
23228;SDS011;11783;50.350;6.576;2023-05-10T05:19:59;15.18;;;6.20;;
23228;SDS011;11783;50.350;6.576;2023-05-10T05:22:25;14.70;;;7.20;;
23228;SDS011;11783;50.350;6.576;2023-05-10T05:24:56;12.68;;;6.30;;
23228;SDS011;11783;50.350;6.576;2023-05-10T05:27:23;13.93;;;7.20;;
23228;SDS011;11783;50.350;6.576;2023-05-10T05:29:52;12.55;;;6.70;;
23228;SDS011;11783;50.350;6.576;2023-05-10T05:32:18;11.02;;;5.82;;
23228;SDS011;11783;50.350;6.576;2023-05-10T05:34:46;12.70;;;6.00;;
23228;SDS011;11783;50.350;6.576;2023-05-10T05:37:15;9.82;;;5.40;;
23228;SDS011;11783;50.350;6.576;2023-05-10T05:39:45;12.10;;;5.40;;
23228;SDS011;11783;50.350;6.576;2023-05-10T05:42:11;10.18;;;4.35;;
23228;SDS011;11783;50.350;6.576;2023-05-10T05:44:37;11.80;;;3.95;;
23228;SDS011;11783;50.350;6.576;2023-05-10T05:47:03;6.70;;;3.45;;
23228;SDS011;11783;50.350;6.576;2023-05-10T05:49:29;10.05;;;3.72;;
23228;SDS011;11783;50.350;6.576;2023-05-10T05:51:54;8.13;;;3.60;;
23228;SDS011;11783;50.350;6.576;2023-05-10T05:54:19;6.97;;;3.45;;
23228;SDS011;11783;50.350;6.576;2023-05-10T05:56:45;7.13;;;3.03;;
23228;SDS011;11783;50.350;6.576;2023-05-10T05:59:10;8.18;;;2.85;;
23228;SDS011;11783;50.350;6.576;2023-05-10T06:01:36;5.82;;;2.55;;
23228;SDS011;11783;50.350;6.576;2023-05-10T06:04:02;9.25;;;3.10;;
23228;SDS011;11783;50.350;6.576;2023-05-10T06:06:27;7.60;;;2.55;;
23228;SDS011;11783;50.350;6.576;2023-05-10T06:08:54;5.97;;;2.60;;
23228;SDS011;11783;50.350;6.576;2023-05-10T06:11:20;5.63;;;2.42;;
23228;SDS011;11783;50.350;6.576;2023-05-10T06:13:46;6.80;;;2.03;;
23228;SDS011;11783;50.350;6.576;2023-05-10T06:16:12;4.05;;;1.98;;
23228;SDS011;11783;50.350;6.576;2023-05-10T06:18:38;4.40;;;2.25;;
23228;SDS011;11783;50.350;6.576;2023-05-10T06:21:03;4.57;;;1.73;;
23228;SDS011;11783;50.350;6.576;2023-05-10T06:23:29;3.30;;;1.40;;
23228;SDS011;11783;50.350;6.576;2023-05-10T06:25:54;4.78;;;1.65;;
23228;SDS011;11783;50.350;6.576;2023-05-10T06:28:19;5.50;;;1.58;;
23228;SDS011;11783;50.350;6.576;2023-05-10T06:30:45;3.60;;;1.20;;
23228;SDS011;11783;50.350;6.576;2023-05-10T06:33:10;3.92;;;1.13;;
23228;SDS011;11783;50.350;6.576;2023-05-10T06:35:35;1.67;;;0.90;;
23228;SDS011;11783;50.350;6.576;2023-05-10T06:38:01;5.68;;;0.90;;
23228;SDS011;11783;50.350;6.576;2023-05-10T06:40:27;3.30;;;0.80;;
23228;SDS011;11783;50.350;6.576;2023-05-10T06:42:52;0.88;;;0.50;;
23228;SDS011;11783;50.350;6.576;2023-05-10T06:45:17;1.10;;;0.52;;
23228;SDS011;11783;50.350;6.576;2023-05-10T06:47:43;3.38;;;0.95;;
23228;SDS011;11783;50.350;6.576;2023-05-10T06:50:09;1.13;;;0.40;;
23228;SDS011;11783;50.350;6.576;2023-05-10T06:52:35;1.25;;;0.40;;
23228;SDS011;11783;50.350;6.576;2023-05-10T06:55:00;3.78;;;0.50;;
23228;SDS011;11783;50.350;6.576;2023-05-10T06:57:26;0.60;;;0.30;;
23228;SDS011;11783;50.350;6.576;2023-05-10T06:59:51;0.80;;;0.40;;
23228;SDS011;11783;50.350;6.576;2023-05-10T07:02:17;1.45;;;0.30;;
23228;SDS011;11783;50.350;6.576;2023-05-10T07:04:42;0.57;;;0.30;;
23228;SDS011;11783;50.350;6.576;2023-05-10T07:07:08;0.77;;;0.40;;
23228;SDS011;11783;50.350;6.576;2023-05-10T07:09:33;0.30;;;0.30;;
23228;SDS011;11783;50.350;6.576;2023-05-10T07:11:59;0.20;;;0.20;;
23228;SDS011;11783;50.350;6.576;2023-05-10T07:14:24;1.45;;;0.28;;
23228;SDS011;11783;50.350;6.576;2023-05-10T07:16:49;1.10;;;0.30;;
23228;SDS011;11783;50.350;6.576;2023-05-10T07:19:15;1.73;;;0.77;;
23228;SDS011;11783;50.350;6.576;2023-05-10T07:21:40;0.70;;;0.40;;
23228;SDS011;11783;50.350;6.576;2023-05-10T07:24:08;1.27;;;0.47;;
23228;SDS011;11783;50.350;6.576;2023-05-10T07:26:33;0.63;;;0.40;;
23228;SDS011;11783;50.350;6.576;2023-05-10T07:28:58;0.98;;;0.40;;
23228;SDS011;11783;50.350;6.576;2023-05-10T07:31:24;0.40;;;0.20;;
23228;SDS011;11783;50.350;6.576;2023-05-10T07:33:49;0.17;;;0.17;;
23228;SDS011;11783;50.350;6.576;2023-05-10T07:36:15;2.00;;;0.80;;
23228;SDS011;11783;50.350;6.576;2023-05-10T07:38:40;2.17;;;0.68;;
23228;SDS011;11783;50.350;6.576;2023-05-10T07:41:05;0.93;;;0.38;;
23228;SDS011;11783;50.350;6.576;2023-05-10T07:43:31;0.82;;;0.43;;
23228;SDS011;11783;50.350;6.576;2023-05-10T07:45:56;0.30;;;0.30;;
23228;SDS011;11783;50.350;6.576;2023-05-10T07:48:22;4.22;;;0.50;;
23228;SDS011;11783;50.350;6.576;2023-05-10T07:50:47;1.88;;;0.70;;
23228;SDS011;11783;50.350;6.576;2023-05-10T07:53:13;2.50;;;0.77;;
23228;SDS011;11783;50.350;6.576;2023-05-10T07:55:38;1.48;;;0.57;;
23228;SDS011;11783;50.350;6.576;2023-05-10T07:58:03;2.33;;;0.35;;
23228;SDS011;11783;50.350;6.576;2023-05-10T08:00:29;2.95;;;0.38;;
23228;SDS011;11783;50.350;6.576;2023-05-10T08:02:54;0.70;;;0.40;;
23228;SDS011;11783;50.350;6.576;2023-05-10T08:05:19;1.48;;;0.30;;
23228;SDS011;11783;50.350;6.576;2023-05-10T08:07:45;1.33;;;0.40;;
23228;SDS011;11783;50.350;6.576;2023-05-10T08:10:10;0.82;;;0.40;;
23228;SDS011;11783;50.350;6.576;2023-05-10T08:12:38;0.75;;;0.30;;
23228;SDS011;11783;50.350;6.576;2023-05-10T08:15:04;0.90;;;0.30;;
23228;SDS011;11783;50.350;6.576;2023-05-10T08:17:30;1.10;;;0.40;;
23228;SDS011;11783;50.350;6.576;2023-05-10T08:19:55;2.25;;;0.50;;
23228;SDS011;11783;50.350;6.576;2023-05-10T08:22:20;1.65;;;0.40;;
23228;SDS011;11783;50.350;6.576;2023-05-10T08:24:46;0.63;;;0.40;;
23228;SDS011;11783;50.350;6.576;2023-05-10T08:27:11;0.80;;;0.50;;
23228;SDS011;11783;50.350;6.576;2023-05-10T08:29:37;1.63;;;0.50;;
23228;SDS011;11783;50.350;6.576;2023-05-10T08:32:02;1.85;;;0.40;;
23228;SDS011;11783;50.350;6.576;2023-05-10T08:34:28;1.02;;;0.40;;
23228;SDS011;11783;50.350;6.576;2023-05-10T08:36:53;1.48;;;0.50;;
23228;SDS011;11783;50.350;6.576;2023-05-10T08:39:19;1.20;;;0.50;;
23228;SDS011;11783;50.350;6.576;2023-05-10T08:41:45;0.80;;;0.60;;
23228;SDS011;11783;50.350;6.576;2023-05-10T08:44:11;1.95;;;0.60;;
23228;SDS011;11783;50.350;6.576;2023-05-10T08:46:37;1.20;;;0.60;;
23228;SDS011;11783;50.350;6.576;2023-05-10T08:49:08;1.23;;;0.70;;
23228;SDS011;11783;50.350;6.576;2023-05-10T08:51:39;2.67;;;0.60;;
23228;SDS011;11783;50.350;6.576;2023-05-10T08:54:08;1.73;;;0.57;;
23228;SDS011;11783;50.350;6.576;2023-05-10T08:56:34;0.77;;;0.50;;
23228;SDS011;11783;50.350;6.576;2023-05-10T08:58:59;1.80;;;0.60;;
23228;SDS011;11783;50.350;6.576;2023-05-10T09:01:25;1.13;;;0.57;;
23228;SDS011;11783;50.350;6.576;2023-05-10T09:03:51;0.50;;;0.30;;
23228;SDS011;11783;50.350;6.576;2023-05-10T09:06:17;1.35;;;0.60;;
23228;SDS011;11783;50.350;6.576;2023-05-10T09:08:43;0.57;;;0.40;;
23228;SDS011;11783;50.350;6.576;2023-05-10T09:11:11;0.70;;;0.40;;
23228;SDS011;11783;50.350;6.576;2023-05-10T09:13:37;1.27;;;0.50;;
23228;SDS011;11783;50.350;6.576;2023-05-10T09:16:03;3.22;;;0.38;;
23228;SDS011;11783;50.350;6.576;2023-05-10T09:18:29;0.30;;;0.30;;
23228;SDS011;11783;50.350;6.576;2023-05-10T09:20:55;1.67;;;0.70;;
23228;SDS011;11783;50.350;6.576;2023-05-10T09:23:20;1.67;;;0.70;;
23228;SDS011;11783;50.350;6.576;2023-05-10T09:25:45;3.22;;;0.40;;
23228;SDS011;11783;50.350;6.576;2023-05-10T09:28:11;2.28;;;0.35;;
23228;SDS011;11783;50.350;6.576;2023-05-10T09:30:36;1.00;;;0.45;;
23228;SDS011;11783;50.350;6.576;2023-05-10T09:33:02;2.40;;;0.40;;
23228;SDS011;11783;50.350;6.576;2023-05-10T09:35:29;1.45;;;0.30;;
23228;SDS011;11783;50.350;6.576;2023-05-10T09:37:58;1.13;;;0.40;;
23228;SDS011;11783;50.350;6.576;2023-05-10T09:40:26;2.72;;;0.43;;
23228;SDS011;11783;50.350;6.576;2023-05-10T09:45:31;1.13;;;0.40;;
23228;SDS011;11783;50.350;6.576;2023-05-10T09:47:58;0.63;;;0.30;;
23228;SDS011;11783;50.350;6.576;2023-05-10T09:50:26;1.05;;;0.50;;
23228;SDS011;11783;50.350;6.576;2023-05-10T09:52:53;1.65;;;0.75;;
23228;SDS011;11783;50.350;6.576;2023-05-10T09:55:26;0.70;;;0.40;;
23228;SDS011;11783;50.350;6.576;2023-05-10T09:58:00;1.02;;;0.45;;
23228;SDS011;11783;50.350;6.576;2023-05-10T10:00:27;0.38;;;0.30;;
23228;SDS011;11783;50.350;6.576;2023-05-10T10:02:56;1.35;;;0.47;;
23228;SDS011;11783;50.350;6.576;2023-05-10T10:07:55;2.05;;;0.55;;
23228;SDS011;11783;50.350;6.576;2023-05-10T10:10:22;1.48;;;0.40;;
23228;SDS011;11783;50.350;6.576;2023-05-10T10:12:47;1.98;;;0.50;;
23228;SDS011;11783;50.350;6.576;2023-05-10T10:15:13;1.83;;;0.40;;
23228;SDS011;11783;50.350;6.576;2023-05-10T10:17:39;1.88;;;0.40;;
23228;SDS011;11783;50.350;6.576;2023-05-10T10:20:06;3.22;;;0.40;;
23228;SDS011;11783;50.350;6.576;2023-05-10T10:22:32;2.28;;;0.60;;
23228;SDS011;11783;50.350;6.576;2023-05-10T10:24:57;2.13;;;0.40;;
23228;SDS011;11783;50.350;6.576;2023-05-10T10:30:01;1.85;;;0.35;;
23228;SDS011;11783;50.350;6.576;2023-05-10T10:32:59;2.30;;;0.77;;
23228;SDS011;11783;50.350;6.576;2023-05-10T10:35:38;1.95;;;0.68;;
23228;SDS011;11783;50.350;6.576;2023-05-10T10:38:04;1.48;;;0.45;;
23228;SDS011;11783;50.350;6.576;2023-05-10T10:40:32;0.70;;;0.38;;
23228;SDS011;11783;50.350;6.576;2023-05-10T10:43:20;2.40;;;0.43;;
23228;SDS011;11783;50.350;6.576;2023-05-10T10:49:08;0.98;;;0.45;;
23228;SDS011;11783;50.350;6.576;2023-05-10T10:51:37;1.85;;;0.30;;
23228;SDS011;11783;50.350;6.576;2023-05-10T10:54:09;1.65;;;0.30;;
23228;SDS011;11783;50.350;6.576;2023-05-10T10:56:35;0.82;;;0.30;;
23228;SDS011;11783;50.350;6.576;2023-05-10T10:59:01;0.82;;;0.30;;
23228;SDS011;11783;50.350;6.576;2023-05-10T11:01:26;1.55;;;0.40;;
23228;SDS011;11783;50.350;6.576;2023-05-10T11:06:36;1.25;;;0.30;;
23228;SDS011;11783;50.350;6.576;2023-05-10T11:09:08;2.42;;;0.40;;
23228;SDS011;11783;50.350;6.576;2023-05-10T11:11:35;0.40;;;0.30;;
23228;SDS011;11783;50.350;6.576;2023-05-10T11:14:05;1.00;;;0.38;;
23228;SDS011;11783;50.350;6.576;2023-05-10T11:16:41;0.73;;;0.40;;
23228;SDS011;11783;50.350;6.576;2023-05-10T11:19:09;0.45;;;0.20;;
23228;SDS011;11783;50.350;6.576;2023-05-10T11:21:44;1.77;;;0.30;;
23228;SDS011;11783;50.350;6.576;2023-05-10T11:24:15;0.47;;;0.30;;
23228;SDS011;11783;50.350;6.576;2023-05-10T11:26:45;1.42;;;0.40;;
23228;SDS011;11783;50.350;6.576;2023-05-10T11:29:12;1.83;;;0.60;;
23228;SDS011;11783;50.350;6.576;2023-05-10T11:31:42;1.15;;;0.45;;
23228;SDS011;11783;50.350;6.576;2023-05-10T11:34:11;1.80;;;0.40;;
23228;SDS011;11783;50.350;6.576;2023-05-10T11:36:50;0.30;;;0.20;;
23228;SDS011;11783;50.350;6.576;2023-05-10T11:39:16;0.40;;;0.20;;
23228;SDS011;11783;50.350;6.576;2023-05-10T11:41:42;0.28;;;0.20;;
23228;SDS011;11783;50.350;6.576;2023-05-10T11:44:08;0.38;;;0.20;;
23228;SDS011;11783;50.350;6.576;2023-05-10T11:46:34;2.15;;;0.32;;
23228;SDS011;11783;50.350;6.576;2023-05-10T11:49:01;1.73;;;0.40;;
23228;SDS011;11783;50.350;6.576;2023-05-10T11:51:29;1.75;;;0.30;;
23228;SDS011;11783;50.350;6.576;2023-05-10T11:53:57;1.88;;;0.32;;
23228;SDS011;11783;50.350;6.576;2023-05-10T11:56:23;0.43;;;0.20;;
23228;SDS011;11783;50.350;6.576;2023-05-10T11:58:52;2.20;;;0.60;;
23228;SDS011;11783;50.350;6.576;2023-05-10T12:01:20;1.27;;;0.20;;
23228;SDS011;11783;50.350;6.576;2023-05-10T12:03:45;1.20;;;0.45;;
23228;SDS011;11783;50.350;6.576;2023-05-10T12:06:11;2.63;;;0.40;;
23228;SDS011;11783;50.350;6.576;2023-05-10T12:08:37;0.90;;;0.40;;
23228;SDS011;11783;50.350;6.576;2023-05-10T12:11:10;1.35;;;0.45;;
23228;SDS011;11783;50.350;6.576;2023-05-10T12:13:37;2.47;;;0.70;;
23228;SDS011;11783;50.350;6.576;2023-05-10T12:16:18;3.58;;;0.60;;
23228;SDS011;11783;50.350;6.576;2023-05-10T12:18:50;1.38;;;0.40;;
23228;SDS011;11783;50.350;6.576;2023-05-10T12:21:17;3.08;;;0.50;;
23228;SDS011;11783;50.350;6.576;2023-05-10T12:23:54;2.40;;;0.50;;
23228;SDS011;11783;50.350;6.576;2023-05-10T12:26:24;3.13;;;0.50;;
23228;SDS011;11783;50.350;6.576;2023-05-10T12:28:52;1.30;;;0.52;;
23228;SDS011;11783;50.350;6.576;2023-05-10T12:31:18;2.47;;;0.50;;
23228;SDS011;11783;50.350;6.576;2023-05-10T12:33:44;0.90;;;0.47;;
23228;SDS011;11783;50.350;6.576;2023-05-10T12:36:10;1.88;;;0.63;;
23228;SDS011;11783;50.350;6.576;2023-05-10T12:38:37;6.80;;;2.30;;
23228;SDS011;11783;50.350;6.576;2023-05-10T12:41:05;2.90;;;0.60;;
23228;SDS011;11783;50.350;6.576;2023-05-10T12:43:32;1.00;;;0.50;;
23228;SDS011;11783;50.350;6.576;2023-05-10T12:45:58;1.55;;;0.40;;
23228;SDS011;11783;50.350;6.576;2023-05-10T12:48:24;1.42;;;0.60;;
23228;SDS011;11783;50.350;6.576;2023-05-10T12:50:49;1.00;;;0.38;;
23228;SDS011;11783;50.350;6.576;2023-05-10T12:53:14;2.53;;;0.60;;
23228;SDS011;11783;50.350;6.576;2023-05-10T12:55:41;2.65;;;0.60;;
23228;SDS011;11783;50.350;6.576;2023-05-10T12:58:06;2.35;;;0.60;;
23228;SDS011;11783;50.350;6.576;2023-05-10T13:00:32;1.55;;;0.60;;
23228;SDS011;11783;50.350;6.576;2023-05-10T13:02:57;4.32;;;0.60;;
23228;SDS011;11783;50.350;6.576;2023-05-10T13:05:22;3.78;;;0.60;;
23228;SDS011;11783;50.350;6.576;2023-05-10T13:07:48;1.92;;;0.50;;
23228;SDS011;11783;50.350;6.576;2023-05-10T13:10:13;3.70;;;0.68;;
23228;SDS011;11783;50.350;6.576;2023-05-10T13:12:38;1.30;;;0.50;;
23228;SDS011;11783;50.350;6.576;2023-05-10T13:15:05;1.83;;;0.60;;
23228;SDS011;11783;50.350;6.576;2023-05-10T13:17:31;4.80;;;1.33;;
23228;SDS011;11783;50.350;6.576;2023-05-10T13:19:57;2.15;;;0.60;;
23228;SDS011;11783;50.350;6.576;2023-05-10T13:22:22;3.17;;;0.80;;
23228;SDS011;11783;50.350;6.576;2023-05-10T13:24:48;2.55;;;0.75;;
23228;SDS011;11783;50.350;6.576;2023-05-10T13:27:13;1.33;;;0.88;;
23228;SDS011;11783;50.350;6.576;2023-05-10T13:29:38;3.58;;;0.70;;
23228;SDS011;11783;50.350;6.576;2023-05-10T13:32:04;2.72;;;1.10;;
23228;SDS011;11783;50.350;6.576;2023-05-10T13:34:29;2.20;;;0.63;;
23228;SDS011;11783;50.350;6.576;2023-05-10T13:36:55;2.03;;;0.43;;
23228;SDS011;11783;50.350;6.576;2023-05-10T13:39:21;2.90;;;0.60;;
23228;SDS011;11783;50.350;6.576;2023-05-10T13:41:46;1.83;;;0.50;;
23228;SDS011;11783;50.350;6.576;2023-05-10T13:44:12;2.55;;;0.88;;
23228;SDS011;11783;50.350;6.576;2023-05-10T13:46:39;2.22;;;0.80;;
23228;SDS011;11783;50.350;6.576;2023-05-10T13:49:05;2.50;;;0.90;;
23228;SDS011;11783;50.350;6.576;2023-05-10T13:51:30;4.32;;;0.85;;
23228;SDS011;11783;50.350;6.576;2023-05-10T13:53:56;1.70;;;0.90;;
23228;SDS011;11783;50.350;6.576;2023-05-10T13:56:22;3.53;;;1.13;;
23228;SDS011;11783;50.350;6.576;2023-05-10T13:58:48;1.98;;;1.20;;
23228;SDS011;11783;50.350;6.576;2023-05-10T14:01:13;4.03;;;1.30;;
23228;SDS011;11783;50.350;6.576;2023-05-10T14:03:39;3.55;;;1.63;;
23228;SDS011;11783;50.350;6.576;2023-05-10T14:06:04;3.42;;;1.70;;
23228;SDS011;11783;50.350;6.576;2023-05-10T14:08:30;4.85;;;1.90;;
23228;SDS011;11783;50.350;6.576;2023-05-10T14:10:55;4.18;;;1.70;;
23228;SDS011;11783;50.350;6.576;2023-05-10T14:13:21;4.78;;;1.00;;
23228;SDS011;11783;50.350;6.576;2023-05-10T14:15:47;3.60;;;0.90;;
23228;SDS011;11783;50.350;6.576;2023-05-10T14:18:12;4.57;;;0.85;;
23228;SDS011;11783;50.350;6.576;2023-05-10T14:20:38;2.45;;;0.95;;
23228;SDS011;11783;50.350;6.576;2023-05-10T14:23:03;1.75;;;0.90;;
23228;SDS011;11783;50.350;6.576;2023-05-10T14:25:28;3.05;;;1.10;;
23228;SDS011;11783;50.350;6.576;2023-05-10T14:27:54;2.53;;;1.13;;
23228;SDS011;11783;50.350;6.576;2023-05-10T14:30:19;3.70;;;1.10;;
23228;SDS011;11783;50.350;6.576;2023-05-10T14:32:45;2.17;;;1.00;;
23228;SDS011;11783;50.350;6.576;2023-05-10T14:35:10;2.03;;;1.20;;
23228;SDS011;11783;50.350;6.576;2023-05-10T14:37:37;3.55;;;1.65;;
23228;SDS011;11783;50.350;6.576;2023-05-10T14:40:03;3.65;;;1.40;;
23228;SDS011;11783;50.350;6.576;2023-05-10T14:42:29;3.88;;;1.75;;
23228;SDS011;11783;50.350;6.576;2023-05-10T14:44:54;3.90;;;1.70;;
23228;SDS011;11783;50.350;6.576;2023-05-10T14:47:20;2.85;;;1.50;;
23228;SDS011;11783;50.350;6.576;2023-05-10T14:49:45;7.03;;;1.60;;
23228;SDS011;11783;50.350;6.576;2023-05-10T14:52:10;3.08;;;1.63;;
23228;SDS011;11783;50.350;6.576;2023-05-10T14:54:37;3.38;;;0.90;;
23228;SDS011;11783;50.350;6.576;2023-05-10T14:57:02;3.00;;;1.30;;
23228;SDS011;11783;50.350;6.576;2023-05-10T14:59:28;3.30;;;1.40;;
23228;SDS011;11783;50.350;6.576;2023-05-10T15:01:53;4.97;;;1.70;;
23228;SDS011;11783;50.350;6.576;2023-05-10T15:04:18;4.32;;;1.80;;
23228;SDS011;11783;50.350;6.576;2023-05-10T15:06:44;5.82;;;1.73;;
23228;SDS011;11783;50.350;6.576;2023-05-10T15:09:09;9.02;;;4.00;;
23228;SDS011;11783;50.350;6.576;2023-05-10T15:11:35;4.68;;;2.30;;
23228;SDS011;11783;50.350;6.576;2023-05-10T15:14:00;2.75;;;1.20;;
23228;SDS011;11783;50.350;6.576;2023-05-10T15:16:26;3.20;;;1.48;;
23228;SDS011;11783;50.350;6.576;2023-05-10T15:18:52;2.88;;;1.13;;